James Creek, Pennsylvania
Current Conditions -  °F | °C
As of 8:53 AM on Thursday 23 Oct 2014 (Local Time) from KAOO Reporting Station
Broken Clouds Broken Clouds  
Wind Chill: 45°   Ceiling: 2500
Heat Index: 49°   Visibility: 10mi
Dew Point: 41°   Wind: 10mph
Humidity: 74%   Direction: 320°NW
Pressure: 30.02"   Gusts: NA
Location:  40.39°N, 78.17°W
Report Text: KAOO 231253Z AUTO 32009KT 10SM BKN025 09/05 A3002 RMK AO2 SLP169 T00940050
Loading
Personal Weather Stations






























Interactive Weather Map
Tropical Storm Tracking
New forecast layout! Learn more

10-Day Weather Forecast

Advertisements
Track Severe Weather on mobile